createdAt,value
2022-09-29T00:02:00.533Z,11.90
2022-09-29T00:06:08.825Z,7.30
2022-09-29T00:10:18.023Z,6.90
2022-09-29T00:14:10.218Z,4.40
2022-09-29T00:18:14.025Z,8.20
2022-09-29T00:22:17.426Z,8.00
2022-09-29T00:26:25.618Z,6.30
2022-09-29T00:30:33.677Z,7.60
2022-09-29T00:37:57.358Z,8.30
2022-09-29T00:42:04.118Z,5.80
2022-09-29T00:46:16.623Z,4.70
2022-09-29T00:50:20.486Z,7.40
2022-09-29T00:54:27.074Z,4.50
2022-09-29T00:58:35.985Z,4.40
2022-09-29T01:02:35.434Z,4.10
2022-09-29T01:06:47.721Z,5.60
2022-09-29T01:10:55.914Z,5.60
2022-09-29T01:15:04.908Z,3.80
2022-09-29T01:19:13.084Z,4.80
2022-09-29T01:23:33.222Z,6.30
2022-09-29T01:28:02.913Z,2.60
2022-09-29T01:32:09.401Z,4.50
2022-09-29T01:36:07.567Z,3.90
2022-09-29T01:40:11.729Z,5.70
2022-09-29T01:44:29.523Z,3.90
2022-09-29T01:48:34.940Z,6.70
2022-09-29T01:52:39.868Z,4.30
2022-09-29T01:56:42.327Z,5.50
2022-09-29T02:00:51.959Z,11.10
2022-09-29T02:05:08.902Z,6.00
2022-09-29T02:09:25.103Z,9.70
2022-09-29T02:13:33.240Z,8.60
2022-09-29T02:17:35.898Z,10.00
2022-09-29T02:21:42.903Z,14.10
2022-09-29T02:25:45.324Z,9.90
2022-09-29T02:29:54.458Z,8.60
2022-09-29T02:34:03.387Z,8.50
2022-09-29T02:38:38.966Z,7.00
2022-09-29T02:42:56.247Z,6.70
2022-09-29T02:46:58.621Z,7.90
2022-09-29T02:51:16.972Z,8.80
2022-09-29T02:55:43.532Z,7.10
2022-09-29T02:59:48.577Z,8.60
2022-09-29T03:03:58.301Z,8.70
2022-09-29T03:08:09.189Z,8.20
2022-09-29T03:11:57.249Z,10.00
2022-09-29T03:15:51.519Z,8.50
2022-09-29T03:19:52.390Z,9.10
2022-09-29T03:24:00.525Z,8.20
2022-09-29T03:28:08.681Z,7.40
2022-09-29T03:32:16.754Z,6.10
2022-09-29T03:36:18.318Z,6.90
2022-09-29T03:40:26.525Z,5.40
2022-09-29T03:44:20.020Z,10.60
2022-09-29T03:48:28.323Z,6.30
2022-09-29T03:52:20.575Z,9.80
2022-09-29T03:56:22.378Z,5.60
2022-09-29T04:00:22.342Z,7.30
2022-09-29T04:04:18.060Z,3.50
2022-09-29T04:08:08.098Z,4.40
2022-09-29T04:11:58.272Z,5.60
2022-09-29T04:16:05.501Z,6.60
2022-09-29T04:20:04.596Z,15.80
2022-09-29T04:24:12.766Z,4.80
2022-09-29T04:28:21.968Z,10.70
2022-09-29T04:32:30.138Z,12.60
2022-09-29T04:36:31.811Z,7.10
2022-09-29T04:40:30.937Z,8.90
2022-09-29T04:44:32.686Z,11.90
2022-09-29T04:48:42.299Z,8.90
2022-09-29T04:51:41.221Z,7.20
2022-09-29T04:55:32.915Z,16.60
2022-09-29T04:59:41.139Z,8.20
2022-09-29T05:03:41.904Z,8.40
2022-09-29T05:07:48.621Z,6.00
2022-09-29T05:11:49.612Z,21.00
2022-09-29T05:15:57.988Z,15.70
2022-09-29T05:19:30.173Z,29.40
2022-09-29T05:23:01.463Z,20.70
2022-09-29T05:26:47.293Z,20.20
2022-09-29T05:30:56.958Z,11.00
2022-09-29T05:35:05.006Z,11.50
2022-09-29T05:38:00.196Z,11.80
2022-09-29T05:41:28.335Z,7.00
2022-09-29T05:45:29.348Z,10.50
2022-09-29T05:48:22.632Z,10.50
2022-09-29T05:52:12.994Z,7.80
2022-09-29T05:55:24.225Z,13.30
2022-09-29T05:57:51.508Z,5.60
2022-09-29T06:00:18.711Z,4.80
2022-09-29T06:02:45.862Z,6.60
2022-09-29T06:05:14.145Z,5.00
2022-09-29T06:07:41.512Z,11.60
2022-09-29T06:10:09.189Z,7.00
2022-09-29T06:12:37.246Z,7.90
2022-09-29T06:15:05.739Z,4.90
2022-09-29T06:17:33.186Z,6.50
2022-09-29T06:20:01.217Z,4.50
2022-09-29T06:22:28.719Z,4.50
2022-09-29T06:24:55.972Z,5.70
2022-09-29T06:27:23.299Z,5.00
2022-09-29T06:29:50.818Z,5.80
2022-09-29T06:32:19.690Z,4.40
2022-09-29T06:35:05.581Z,6.40
2022-09-29T06:37:35.970Z,5.80
2022-09-29T06:40:08.831Z,4.90
2022-09-29T06:42:39.313Z,5.40
2022-09-29T06:45:12.151Z,3.80
2022-09-29T06:47:40.675Z,6.50
2022-09-29T06:50:18.720Z,7.50
2022-09-29T06:53:01.948Z,5.90
2022-09-29T06:55:31.969Z,4.20
2022-09-29T06:58:03.829Z,3.80
2022-09-29T07:00:35.422Z,5.80
2022-09-29T07:03:04.104Z,5.70
2022-09-29T07:05:32.428Z,5.20
2022-09-29T07:08:01.205Z,5.00
2022-09-29T07:10:29.058Z,3.30
2022-09-29T07:13:01.961Z,3.30
2022-09-29T07:15:32.190Z,4.50
2022-09-29T07:18:01.200Z,2.60
2022-09-29T07:20:29.357Z,4.30
2022-09-29T07:22:56.612Z,2.90
2022-09-29T07:25:50.018Z,3.90
2022-09-29T07:28:12.141Z,6.20
2022-09-29T07:30:40.908Z,6.80
2022-09-29T07:33:08.556Z,2.70
2022-09-29T07:35:39.821Z,2.60
2022-09-29T07:38:07.327Z,2.30
2022-09-29T07:40:35.999Z,3.30
2022-09-29T07:43:03.534Z,5.30
2022-09-29T07:45:31.092Z,5.50
2022-09-29T07:47:58.753Z,2.40
2022-09-29T07:50:25.930Z,3.60
2022-09-29T07:52:53.105Z,2.90
2022-09-29T07:55:21.397Z,2.70
2022-09-29T07:57:48.856Z,3.50
2022-09-29T08:00:17.312Z,3.90
2022-09-29T08:02:45.153Z,3.20
2022-09-29T08:05:12.569Z,2.70
2022-09-29T08:07:39.678Z,4.50
2022-09-29T08:10:15.406Z,6.20
2022-09-29T08:12:44.533Z,3.30
2022-09-29T08:15:12.380Z,2.90
2022-09-29T08:17:39.980Z,2.70
2022-09-29T08:20:08.556Z,6.50
2022-09-29T08:22:36.568Z,4.70
2022-09-29T08:25:03.841Z,6.00
2022-09-29T08:27:32.319Z,3.20
2022-09-29T08:29:59.598Z,3.30
2022-09-29T08:32:26.749Z,5.30
2022-09-29T08:34:54.574Z,5.10
2022-09-29T08:37:21.870Z,4.30
2022-09-29T08:39:49.406Z,3.00
2022-09-29T08:42:47.291Z,3.20
2022-09-29T08:45:29.739Z,5.10
2022-09-29T08:50:31.419Z,6.60
2022-09-29T08:53:01.317Z,4.00
2022-09-29T08:55:48.301Z,3.90
2022-09-29T08:58:17.125Z,3.90
2022-09-29T09:01:12.832Z,2.20
2022-09-29T09:04:31.601Z,5.90
2022-09-29T09:07:04.349Z,5.70
2022-09-29T09:09:52.693Z,4.50
2022-09-29T09:12:35.071Z,7.70
2022-09-29T09:15:23.845Z,7.20
2022-09-29T09:18:09.762Z,4.50
2022-09-29T09:20:44.774Z,5.70
2022-09-29T09:23:58.317Z,5.20
2022-09-29T09:26:34.162Z,3.90
2022-09-29T09:29:09.317Z,2.60
2022-09-29T09:31:40.638Z,6.00
2022-09-29T09:34:11.295Z,2.50
2022-09-29T09:36:43.188Z,4.20
2022-09-29T09:39:14.578Z,3.20
2022-09-29T09:41:43.126Z,3.20
2022-09-29T09:44:33.638Z,3.20
2022-09-29T09:47:14.101Z,3.40
2022-09-29T09:49:51.526Z,2.40
2022-09-29T09:52:32.263Z,4.60
2022-09-29T09:58:03.033Z,6.50
2022-09-29T10:01:07.290Z,3.50
2022-09-29T10:03:34.678Z,2.80
2022-09-29T10:06:02.205Z,3.30
2022-09-29T10:08:32.307Z,3.70
2022-09-29T10:11:00.114Z,5.00
2022-09-29T10:13:30.724Z,3.70
2022-09-29T10:16:00.326Z,4.10
2022-09-29T10:18:38.315Z,4.10
2022-09-29T10:21:06.462Z,2.90
2022-09-29T10:23:35.147Z,3.80
2022-09-29T10:26:05.778Z,2.90
2022-09-29T10:28:51.341Z,5.20
2022-09-29T10:31:28.720Z,9.80
2022-09-29T10:33:58.199Z,5.20
2022-09-29T10:36:27.240Z,8.20
2022-09-29T10:38:55.412Z,6.20
2022-09-29T10:41:25.309Z,8.80
2022-09-29T10:43:54.093Z,9.10
2022-09-29T10:46:54.590Z,8.10
2022-09-29T10:49:29.361Z,6.00
2022-09-29T10:52:15.429Z,6.50
2022-09-29T10:54:59.825Z,5.30
2022-09-29T10:57:28.383Z,4.50
2022-09-29T10:59:56.365Z,6.20
2022-09-29T11:02:32.386Z,4.50
2022-09-29T11:05:02.124Z,3.30
2022-09-29T11:07:35.932Z,7.40
2022-09-29T11:10:03.440Z,5.40
2022-09-29T11:12:35.359Z,6.40
2022-09-29T11:15:02.890Z,5.70
2022-09-29T11:19:21.041Z,5.40
2022-09-29T11:22:27.415Z,5.40
2022-09-29T11:25:23.173Z,5.60
2022-09-29T11:28:12.246Z,5.20
2022-09-29T11:30:48.141Z,3.30
2022-09-29T11:33:27.849Z,5.20
2022-09-29T11:36:23.720Z,5.90
2022-09-29T11:38:59.573Z,5.90
2022-09-29T11:41:57.734Z,7.80
2022-09-29T11:44:31.221Z,5.70
2022-09-29T11:47:21.426Z,8.10
2022-09-29T11:50:27.662Z,6.00
2022-09-29T11:53:16.401Z,5.00
2022-09-29T11:55:48.433Z,7.70
2022-09-29T11:58:47.195Z,7.40
2022-09-29T12:01:33.924Z,4.50
2022-09-29T12:04:19.924Z,5.80
2022-09-29T12:07:00.781Z,5.40
2022-09-29T12:09:49.851Z,4.60
2022-09-29T12:12:26.884Z,5.10
2022-09-29T12:15:00.449Z,5.40
2022-09-29T12:17:29.353Z,5.70
2022-09-29T12:20:04.559Z,6.30
2022-09-29T12:22:34.588Z,5.50
2022-09-29T12:25:04.382Z,5.80
2022-09-29T12:27:39.699Z,4.10
2022-09-29T12:30:13.962Z,5.90
2022-09-29T12:32:48.463Z,5.30
2022-09-29T12:35:19.265Z,5.30
2022-09-29T12:37:49.915Z,5.20
2022-09-29T12:40:18.320Z,4.20
2022-09-29T12:42:54.081Z,5.70
2022-09-29T12:45:24.249Z,7.60
2022-09-29T12:48:00.247Z,6.60
2022-09-29T12:50:41.463Z,7.40
2022-09-29T12:53:26.610Z,6.40
2022-09-29T12:55:59.677Z,5.00
2022-09-29T12:58:33.630Z,6.90
2022-09-29T13:01:16.056Z,6.80
2022-09-29T13:04:06.047Z,4.60
2022-09-29T13:06:44.289Z,5.40
2022-09-29T13:09:47.961Z,5.90
2022-09-29T13:12:27.420Z,8.50
2022-09-29T13:15:13.111Z,11.80
2022-09-29T13:17:56.553Z,9.90
2022-09-29T13:20:43.796Z,5.70
2022-09-29T13:23:20.029Z,4.80
2022-09-29T13:26:20.453Z,4.80
2022-09-29T13:28:53.335Z,4.90
2022-09-29T13:31:28.026Z,4.00
2022-09-29T13:34:01.524Z,5.70
2022-09-29T13:36:36.311Z,6.70
2022-09-29T13:39:06.006Z,6.00
2022-09-29T13:41:40.465Z,5.10
2022-09-29T13:44:18.858Z,5.30
2022-09-29T13:46:46.395Z,5.70
2022-09-29T13:49:40.643Z,5.00
2022-09-29T13:52:10.930Z,3.90
2022-09-29T13:54:42.248Z,10.30
2022-09-29T13:59:57.146Z,6.30
2022-09-29T14:02:44.359Z,4.30
2022-09-29T14:05:23.995Z,6.00
2022-09-29T14:07:56.173Z,8.20
2022-09-29T14:10:35.610Z,3.70
2022-09-29T14:13:07.384Z,5.60
2022-09-29T14:15:37.854Z,6.40
2022-09-29T14:18:07.138Z,8.60
2022-09-29T14:20:34.938Z,11.20
2022-09-29T14:23:08.003Z,12.70
2022-09-29T14:25:41.333Z,12.60
2022-09-29T14:28:32.649Z,8.00
2022-09-29T14:31:03.016Z,6.10
2022-09-29T14:33:52.941Z,8.10
2022-09-29T14:36:21.546Z,6.10
2022-09-29T14:39:21.652Z,5.60
2022-09-29T14:41:45.224Z,4.50
2022-09-29T14:44:52.235Z,5.90
2022-09-29T14:47:55.557Z,9.70
2022-09-29T14:50:56.416Z,5.70
2022-09-29T14:56:14.250Z,6.40
2022-09-29T14:59:00.234Z,9.50
2022-09-29T15:01:31.103Z,5.70
2022-09-29T15:04:17.452Z,8.30
2022-09-29T15:06:54.111Z,7.20
2022-09-29T15:09:24.929Z,7.30
2022-09-29T15:11:54.028Z,6.70
2022-09-29T15:14:26.078Z,6.30
2022-09-29T15:17:08.737Z,4.80
2022-09-29T15:20:00.656Z,6.30
2022-09-29T15:22:35.534Z,7.10
2022-09-29T15:25:11.600Z,7.40
2022-09-29T15:27:39.694Z,7.50
2022-09-29T15:30:16.981Z,6.50
2022-09-29T15:32:45.415Z,5.90
2022-09-29T15:35:14.750Z,7.30
2022-09-29T15:37:51.134Z,6.30
2022-09-29T15:40:20.815Z,7.30
2022-09-29T15:42:48.284Z,8.50
2022-09-29T15:45:27.608Z,8.00
2022-09-29T15:48:03.589Z,10.00
2022-09-29T15:50:32.192Z,9.50
2022-09-29T15:53:02.959Z,9.10
2022-09-29T15:55:33.214Z,12.60
2022-09-29T15:58:03.677Z,7.00
2022-09-29T16:00:37.374Z,7.00
2022-09-29T16:03:13.459Z,8.40
2022-09-29T16:06:12.078Z,9.90
2022-09-29T16:08:42.092Z,8.50
2022-09-29T16:11:14.905Z,11.70
2022-09-29T16:13:42.878Z,10.00
2022-09-29T16:16:11.544Z,9.10
2022-09-29T16:18:43.325Z,7.00
2022-09-29T16:21:21.308Z,8.40
2022-09-29T16:23:53.042Z,7.80
2022-09-29T16:26:47.508Z,22.10
2022-09-29T16:29:36.130Z,27.70
2022-09-29T16:32:37.177Z,41.60
2022-09-29T16:38:23.858Z,56.50
2022-09-29T16:40:52.489Z,55.50
2022-09-29T16:43:26.563Z,54.80
2022-09-29T16:45:57.083Z,77.40
2022-09-29T16:48:25.225Z,44.10
2022-09-29T16:50:57.840Z,55.20
2022-09-29T16:53:35.383Z,26.40
2022-09-29T16:56:27.750Z,28.90
2022-09-29T16:59:20.181Z,19.20
2022-09-29T17:04:23.663Z,27.80
2022-09-29T17:06:55.013Z,27.50
2022-09-29T17:11:51.478Z,21.90
2022-09-29T17:14:21.563Z,24.40
2022-09-29T17:16:53.388Z,20.70
2022-09-29T17:19:22.552Z,20.20
2022-09-29T17:21:56.459Z,19.70
2022-09-29T17:24:29.507Z,24.10
2022-09-29T17:27:15.437Z,21.00
2022-09-29T17:29:44.006Z,22.60
2022-09-29T17:32:15.138Z,21.40
2022-09-29T17:34:42.557Z,18.70
2022-09-29T17:37:11.217Z,13.60
2022-09-29T17:39:46.234Z,17.80
2022-09-29T17:42:17.677Z,16.80
2022-09-29T17:44:45.485Z,16.90
2022-09-29T17:47:27.223Z,21.10
2022-09-29T17:50:01.085Z,31.80
2022-09-29T17:52:28.433Z,30.90
2022-09-29T17:54:55.713Z,25.20
2022-09-29T17:57:25.946Z,23.70
2022-09-29T17:59:54.070Z,24.50
2022-09-29T18:02:21.650Z,26.40
2022-09-29T18:04:51.670Z,34.30
2022-09-29T18:07:19.024Z,41.10
2022-09-29T18:09:50.163Z,42.10
2022-09-29T18:12:17.885Z,34.80
2022-09-29T18:14:45.464Z,32.60
2022-09-29T18:17:15.267Z,31.60
2022-09-29T18:19:42.749Z,35.30
2022-09-29T18:22:10.850Z,37.50
2022-09-29T18:24:38.809Z,34.50
2022-09-29T18:27:06.282Z,34.00
2022-09-29T18:29:34.142Z,28.50
2022-09-29T18:32:02.063Z,31.70
2022-09-29T18:34:33.582Z,50.30
2022-09-29T18:37:01.194Z,39.40
2022-09-29T18:39:31.734Z,36.80
2022-09-29T18:41:59.176Z,35.70
2022-09-29T18:44:29.562Z,35.50
2022-09-29T18:46:57.356Z,27.20
2022-09-29T18:49:25.052Z,30.10
2022-09-29T18:51:52.921Z,28.90
2022-09-29T18:54:20.446Z,30.90
2022-09-29T18:56:53.796Z,29.60
2022-09-29T18:59:24.462Z,30.00
2022-09-29T19:01:52.212Z,33.00
2022-09-29T19:04:20.212Z,31.50
2022-09-29T19:06:49.581Z,46.40
2022-09-29T19:09:17.320Z,37.00
2022-09-29T19:11:49.573Z,30.50
2022-09-29T19:14:45.516Z,34.30
2022-09-29T19:17:41.499Z,29.50
2022-09-29T19:20:10.901Z,36.20
2022-09-29T19:22:47.489Z,22.70
2022-09-29T19:25:22.669Z,21.60
2022-09-29T19:27:50.214Z,24.20
2022-09-29T19:30:19.994Z,26.30
2022-09-29T19:32:48.453Z,26.40
2022-09-29T19:35:21.663Z,26.20
2022-09-29T19:37:52.255Z,26.00
2022-09-29T19:40:25.147Z,23.10
2022-09-29T19:42:53.259Z,19.40
2022-09-29T19:45:25.411Z,15.30
2022-09-29T19:47:57.328Z,17.60
2022-09-29T19:50:43.473Z,16.10
2022-09-29T19:53:10.985Z,22.30
2022-09-29T19:55:40.243Z,21.30
2022-09-29T19:58:11.586Z,21.80
2022-09-29T20:00:44.969Z,12.30
2022-09-29T20:03:12.860Z,10.00
2022-09-29T20:05:44.275Z,12.40
2022-09-29T20:08:11.630Z,11.60
2022-09-29T20:10:42.149Z,13.60
2022-09-29T20:13:14.875Z,10.90
2022-09-29T20:15:46.688Z,12.20
2022-09-29T20:18:19.350Z,8.70
2022-09-29T20:20:51.657Z,11.00
2022-09-29T20:23:19.128Z,11.80
2022-09-29T20:25:47.548Z,11.30
2022-09-29T20:28:15.897Z,14.00
2022-09-29T20:30:46.446Z,11.70
2022-09-29T20:33:19.883Z,14.80
2022-09-29T20:35:47.605Z,11.10
2022-09-29T20:38:15.249Z,12.20
2022-09-29T20:40:45.641Z,11.00
2022-09-29T20:43:19.032Z,12.50
2022-09-29T20:45:49.458Z,16.50
2022-09-29T20:48:19.472Z,17.50
2022-09-29T20:50:52.349Z,17.00
2022-09-29T20:53:30.465Z,19.50
2022-09-29T20:56:07.445Z,17.20
2022-09-29T20:58:44.267Z,19.70
2022-09-29T21:01:18.836Z,25.00
2022-09-29T21:03:58.148Z,18.60
2022-09-29T21:06:30.207Z,21.80
2022-09-29T21:09:01.235Z,27.40
2022-09-29T21:11:28.724Z,16.50
2022-09-29T21:13:59.334Z,25.40
2022-09-29T21:16:26.830Z,27.60
2022-09-29T21:18:55.329Z,24.70
2022-09-29T21:21:23.060Z,25.70
2022-09-29T21:23:50.796Z,24.90
2022-09-29T21:26:19.305Z,23.20
2022-09-29T21:28:55.207Z,17.10
2022-09-29T21:31:24.504Z,22.50
2022-09-29T21:33:57.548Z,24.50
2022-09-29T21:36:26.413Z,24.60
2022-09-29T21:38:54.593Z,23.40
2022-09-29T21:41:29.235Z,29.80
2022-09-29T21:44:00.847Z,31.10
2022-09-29T21:46:29.860Z,23.60
2022-09-29T21:48:58.680Z,41.20
2022-09-29T21:51:34.974Z,35.00
2022-09-29T21:54:03.042Z,40.40
2022-09-29T21:56:37.854Z,40.10
2022-09-29T21:59:05.283Z,37.50
2022-09-29T22:01:33.507Z,33.10
2022-09-29T22:04:03.644Z,36.20
2022-09-29T22:06:32.409Z,36.10
2022-09-29T22:09:05.152Z,39.30
2022-09-29T22:11:36.026Z,37.90
2022-09-29T22:14:04.006Z,22.20
2022-09-29T22:16:32.865Z,18.00
2022-09-29T22:21:48.688Z,20.50
2022-09-29T22:24:19.409Z,17.00
2022-09-29T22:26:47.155Z,15.10
2022-09-29T22:30:15.979Z,16.40
2022-09-29T22:34:24.206Z,14.00
2022-09-29T22:38:32.294Z,15.50
2022-09-29T22:42:40.567Z,11.10
2022-09-29T22:46:42.576Z,15.70
2022-09-29T22:50:53.884Z,12.60
2022-09-29T22:54:58.898Z,11.10
2022-09-29T22:59:06.994Z,11.60
2022-09-29T23:03:03.583Z,11.40
2022-09-29T23:07:07.603Z,12.40
2022-09-29T23:11:15.833Z,12.80
2022-09-29T23:15:14.015Z,18.80
2022-09-29T23:19:23.347Z,18.10
2022-09-29T23:23:31.529Z,11.50
2022-09-29T23:27:32.301Z,11.10
2022-09-29T23:31:47.271Z,13.80
2022-09-29T23:35:59.630Z,9.60
2022-09-29T23:40:07.773Z,10.20
2022-09-29T23:44:16.013Z,11.00
2022-09-29T23:48:25.374Z,14.10
2022-09-29T23:52:33.520Z,8.80
2022-09-29T23:56:43.452Z,9.80
